Time,TemperatureF,DewpointF,PressureIn,WindDirection,WindDirectionDegrees,WindSpeedMPH,WindSpeedGustMPH,Humidity,HourlyPrecipIn,Conditions,Clouds,dailyrainin,SolarRadiationWatts/m^2,SoftwareType,DateUTC
2013-06-12 00:00:00,64.0,63.1,29.85,NNW,338,0.0,2.0,97,0.00,,---,0.00,0.00,VWS V14.00,2013-06-12 05:00:00,
2013-06-12 00:30:00,64.6,63.7,29.83,NNW,338,0.0,3.0,97,0.00,,---,0.00,0.00,VWS V14.00,2013-06-12 05:30:00,
2013-06-12 01:00:00,64.0,62.8,29.82,NNW,338,0.0,4.0,96,0.00,,---,0.00,0.00,VWS V14.00,2013-06-12 06:00:00,
2013-06-12 01:30:00,64.3,63.1,29.83,NNW,338,0.0,3.0,96,0.00,,---,0.00,0.00,VWS V14.00,2013-06-12 06:30:00,
2013-06-12 02:00:00,63.6,62.4,29.82,NNW,338,0.0,2.0,96,0.00,,---,0.00,0.00,VWS V14.00,2013-06-12 07:00:00,
2013-06-12 02:30:00,62.8,61.7,29.85,NNW,338,0.0,2.0,96,0.00,,---,0.00,0.00,VWS V14.00,2013-06-12 07:30:00,
2013-06-12 03:00:00,62.6,61.2,29.83,NNW,338,0.0,3.0,95,0.00,,---,0.00,0.00,VWS V14.00,2013-06-12 08:00:00,
2013-06-12 03:30:00,61.7,60.5,29.80,NNW,338,0.0,3.0,96,0.00,,---,0.00,0.00,VWS V14.00,2013-06-12 08:30:00,
2013-06-12 04:00:00,64.7,62.3,29.77,NNW,338,1.0,5.0,92,0.00,,---,0.00,0.00,VWS V14.00,2013-06-12 09:00:00,
2013-06-12 04:30:00,65.3,62.3,29.81,NNW,338,0.0,4.0,90,0.00,,---,0.00,0.00,VWS V14.00,2013-06-12 09:30:00,
2013-06-12 05:00:00,64.2,62.1,29.79,SSW,202,0.0,1.0,93,0.00,,---,0.00,0.00,VWS V14.00,2013-06-12 10:00:00,
2013-06-12 05:30:00,64.8,63.0,29.78,NNW,338,1.0,5.0,94,0.00,,---,0.00,0.00,VWS V14.00,2013-06-12 10:30:00,
2013-06-12 06:00:00,63.8,60.8,29.78,NNW,338,1.0,5.0,90,0.00,,---,0.01,2.00,VWS V14.00,2013-06-12 11:00:00,
2013-06-12 06:30:00,64.8,63.0,29.78,NNW,338,1.0,5.0,94,0.00,,---,0.00,0.00,VWS V14.00,2013-06-12 11:30:00,
2013-06-12 06:37:00,63.4,59.8,29.77,North,0,2.0,7.0,88,0.00,,---,0.01,16.00,VWS V14.00,2013-06-12 11:37:00,
2013-06-12 06:42:00,63.5,59.6,29.76,North,9,4.0,6.0,87,0.00,,---,0.01,32.00,VWS V14.00,2013-06-12 11:42:00,
2013-06-12 06:48:00,63.6,59.7,29.76,NNE,19,0.0,9.0,87,0.00,,---,0.01,33.00,VWS V14.00,2013-06-12 11:48:00,
2013-06-12 06:53:00,63.7,59.8,29.76,North,5,2.0,9.0,87,0.00,,---,0.01,28.00,VWS V14.00,2013-06-12 11:53:00,
2013-06-12 06:58:00,63.8,59.9,29.75,NNW,332,3.0,3.0,87,0.00,,---,0.01,26.00,VWS V14.00,2013-06-12 11:58:00,
2013-06-12 07:00:00,63.8,60.8,29.78,NNW,338,1.0,5.0,90,0.00,,---,0.01,2.00,VWS V14.00,2013-06-12 12:00:00,
2013-06-12 07:03:00,63.8,60.2,29.75,NNW,342,0.0,4.0,88,0.00,,---,0.01,26.00,VWS V14.00,2013-06-12 12:03:00,
2013-06-12 07:08:00,64.0,60.4,29.76,WSW,249,1.0,5.0,88,0.00,,---,0.01,25.00,VWS V14.00,2013-06-12 12:08:00,
2013-06-12 07:13:00,64.2,60.6,29.76,NNW,339,1.0,5.0,88,0.00,,---,0.01,18.00,VWS V14.00,2013-06-12 12:13:00,
2013-06-12 07:18:00,64.5,61.2,29.76,NNW,340,0.0,5.0,89,0.00,,---,0.01,12.00,VWS V14.00,2013-06-12 12:18:00,
2013-06-12 07:23:00,64.7,61.1,29.77,North,355,1.0,5.0,88,0.00,,---,0.01,9.00,VWS V14.00,2013-06-12 12:23:00,
2013-06-12 07:28:00,64.8,61.5,29.77,NNE,13,3.0,4.0,89,0.00,,---,0.01,11.00,VWS V14.00,2013-06-12 12:28:00,
2013-06-12 07:30:00,63.4,59.8,29.77,North,0,2.0,7.0,88,0.00,,---,0.01,16.00,VWS V14.00,2013-06-12 12:30:00,
2013-06-12 07:33:00,64.8,61.2,29.76,NNE,20,1.0,4.0,88,0.00,,---,0.01,14.00,VWS V14.00,2013-06-12 12:33:00,
2013-06-12 07:38:00,64.8,61.2,29.77,North,5,0.0,5.0,88,0.00,,---,0.02,11.00,VWS V14.00,2013-06-12 12:38:00,
2013-06-12 07:44:00,64.8,61.8,29.78,North,5,0.0,5.0,90,0.00,,---,0.02,5.00,VWS V14.00,2013-06-12 12:44:00,
2013-06-12 07:49:00,64.5,61.8,29.78,North,5,0.0,5.0,91,0.06,,---,0.03,0.00,VWS V14.00,2013-06-12 12:49:00,
2013-06-12 07:54:00,64.3,61.9,29.80,North,5,0.0,5.0,92,0.06,,---,0.03,0.00,VWS V14.00,2013-06-12 12:54:00,
2013-06-12 07:59:00,64.0,61.9,29.81,North,5,0.0,0.0,93,0.06,,---,0.04,0.00,VWS V14.00,2013-06-12 12:59:00,
2013-06-12 08:00:00,63.7,60.1,29.75,NNE,21,1.0,9.0,88,0.00,,---,0.01,26.00,VWS V14.00,2013-06-12 13:00:00,
2013-06-12 08:04:00,63.8,61.7,29.82,North,5,0.0,0.0,93,0.06,,---,0.04,0.00,VWS V14.00,2013-06-12 13:04:00,
2013-06-12 08:09:00,63.6,61.8,29.83,North,5,0.0,0.0,94,0.05,,---,0.05,0.00,VWS V14.00,2013-06-12 13:09:00,
2013-06-12 08:14:00,63.5,62.0,29.82,North,5,0.0,1.0,95,0.05,,---,0.05,0.00,VWS V14.00,2013-06-12 13:14:00,
2013-06-12 08:19:00,63.3,61.8,29.81,North,360,0.0,1.0,95,0.09,,---,0.06,0.00,VWS V14.00,2013-06-12 13:19:00,
2013-06-12 08:24:00,63.2,61.8,29.81,SW,215,0.0,3.0,95,0.08,,---,0.07,0.00,VWS V14.00,2013-06-12 13:24:00,
2013-06-12 08:30:00,63.2,62.0,29.81,SW,228,0.0,2.0,96,0.11,,---,0.08,0.00,VWS V14.00,2013-06-12 13:30:00,
2013-06-12 08:35:00,63.2,62.0,29.81,SW,229,1.0,2.0,96,0.10,,---,0.09,0.00,VWS V14.00,2013-06-12 13:35:00,
2013-06-12 08:40:00,63.2,62.0,29.80,NNW,333,4.0,4.0,96,0.15,,---,0.10,0.00,VWS V14.00,2013-06-12 13:40:00,
2013-06-12 08:45:00,62.9,61.8,29.80,NW,317,2.0,6.0,96,0.13,,---,0.11,0.00,VWS V14.00,2013-06-12 13:45:00,
2013-06-12 08:50:00,62.7,61.5,29.80,NNE,15,0.0,9.0,96,0.20,,---,0.12,0.00,VWS V14.00,2013-06-12 13:50:00,
2013-06-12 08:55:00,62.2,61.0,29.80,NW,319,4.0,15.0,96,0.20,,---,0.14,0.00,VWS V14.00,2013-06-12 13:55:00,
2013-06-12 09:00:00,61.7,60.5,29.81,NNW,346,2.0,4.0,96,0.15,,---,0.15,0.00,VWS V14.00,2013-06-12 14:00:00,
2013-06-12 09:05:00,61.4,60.2,29.81,NW,321,5.0,7.0,96,0.14,,---,0.17,0.00,VWS V14.00,2013-06-12 14:05:00,
2013-06-12 09:10:00,60.8,59.4,29.80,NW,322,3.0,7.0,95,0.21,,---,0.18,5.00,VWS V14.00,2013-06-12 14:10:00,
2013-06-12 09:15:00,60.3,58.9,29.80,NW,325,5.0,15.0,95,0.19,,---,0.20,7.00,VWS V14.00,2013-06-12 14:15:00,
2013-06-12 09:20:00,60.1,59.0,29.81,North,355,3.0,15.0,96,0.12,,---,0.21,5.00,VWS V14.00,2013-06-12 14:20:00,
2013-06-12 09:25:00,60.0,58.9,29.80,North,355,5.0,15.0,96,0.17,,---,0.22,7.00,VWS V14.00,2013-06-12 14:25:00,
2013-06-12 09:30:00,63.2,61.8,29.81,SW,225,0.0,3.0,95,0.08,,---,0.07,0.00,VWS V14.00,2013-06-12 14:30:00,
2013-06-12 09:31:00,60.1,59.2,29.80,NNW,345,4.0,10.0,97,0.12,,---,0.23,9.00,VWS V14.00,2013-06-12 14:31:00,
2013-06-12 09:36:00,60.3,59.5,29.80,North,350,7.0,10.0,97,0.16,,---,0.24,11.00,VWS V14.00,2013-06-12 14:36:00,
2013-06-12 09:41:00,60.6,59.8,29.81,NNW,336,3.0,10.0,97,0.11,,---,0.25,7.00,VWS V14.00,2013-06-12 14:41:00,
2013-06-12 09:46:00,60.9,60.0,29.82,NW,323,3.0,10.0,97,0.15,,---,0.26,0.00,VWS V14.00,2013-06-12 14:46:00,
2013-06-12 09:51:00,61.2,60.3,29.82,NW,311,1.0,10.0,97,0.11,,---,0.27,5.00,VWS V14.00,2013-06-12 14:51:00,
2013-06-12 09:56:00,61.4,60.8,29.82,NW,323,2.0,10.0,98,0.13,,---,0.28,0.00,VWS V14.00,2013-06-12 14:56:00,
2013-06-12 10:00:00,62.0,60.8,29.81,NNW,335,2.0,15.0,96,0.15,,---,0.14,0.00,VWS V14.00,2013-06-12 15:00:00,
2013-06-12 10:01:00,61.6,61.0,29.81,North,349,2.0,5.0,98,0.11,,---,0.29,5.00,VWS V14.00,2013-06-12 15:01:00,
2013-06-12 10:06:00,61.8,61.2,29.81,NNW,334,1.0,6.0,98,0.12,,---,0.30,5.00,VWS V14.00,2013-06-12 15:06:00,
2013-06-12 10:11:00,62.0,61.4,29.81,North,5,2.0,9.0,98,0.10,,---,0.31,5.00,VWS V14.00,2013-06-12 15:11:00,
2013-06-12 10:16:00,62.0,61.4,29.82,NNW,346,3.0,9.0,98,0.12,,---,0.32,0.00,VWS V14.00,2013-06-12 15:16:00,
2013-06-12 10:22:00,62.0,61.4,29.82,NNW,340,2.0,9.0,98,0.10,,---,0.33,5.00,VWS V14.00,2013-06-12 15:22:00,
2013-06-12 10:27:00,62.0,61.4,29.81,North,350,3.0,9.0,98,0.12,,---,0.34,5.00,VWS V14.00,2013-06-12 15:27:00,
2013-06-12 10:30:00,60.0,58.9,29.80,NNE,15,3.0,15.0,96,0.17,,---,0.22,9.00,VWS V14.00,2013-06-12 15:30:00,
2013-06-12 10:32:00,62.0,61.4,29.80,NNW,339,1.0,4.0,98,0.10,,---,0.34,5.00,VWS V14.00,2013-06-12 15:32:00,
2013-06-12 10:37:00,61.9,61.3,29.78,WNW,302,6.0,6.0,98,0.09,,---,0.35,5.00,VWS V14.00,2013-06-12 15:37:00,
2013-06-12 10:42:00,61.9,61.3,29.77,NE,49,3.0,11.0,98,0.12,,---,0.36,7.00,VWS V14.00,2013-06-12 15:42:00,
2013-06-12 10:47:00,62.2,61.6,29.76,NNW,344,4.0,11.0,98,0.09,,---,0.37,7.00,VWS V14.00,2013-06-12 15:47:00,
2013-06-12 10:52:00,62.5,61.9,29.75,NNW,340,0.0,11.0,98,0.12,,---,0.38,9.00,VWS V14.00,2013-06-12 15:52:00,
2013-06-12 10:57:00,62.6,62.0,29.75,NNW,340,2.0,11.0,98,0.09,,---,0.39,11.00,VWS V14.00,2013-06-12 15:57:00,
2013-06-12 11:00:00,61.5,60.9,29.82,NW,325,0.0,10.0,98,0.13,,---,0.28,0.00,VWS V14.00,2013-06-12 16:00:00,
2013-06-12 11:02:00,62.9,62.3,29.76,NNE,12,4.0,12.0,98,0.11,,---,0.40,12.00,VWS V14.00,2013-06-12 16:02:00,
2013-06-12 11:07:00,63.1,62.5,29.77,NW,322,0.0,12.0,98,0.09,,---,0.40,16.00,VWS V14.00,2013-06-12 16:07:00,
2013-06-12 11:12:00,63.2,62.6,29.77,SW,228,0.0,12.0,98,0.09,,---,0.41,28.00,VWS V14.00,2013-06-12 16:12:00,
2013-06-12 11:17:00,63.2,62.6,29.78,WNW,288,2.0,12.0,98,0.11,,---,0.42,39.00,VWS V14.00,2013-06-12 16:17:00,
2013-06-12 11:22:00,63.4,62.8,29.78,WNW,288,0.0,12.0,98,0.08,,---,0.43,58.00,VWS V14.00,2013-06-12 16:22:00,
2013-06-12 11:28:00,63.5,62.9,29.77,WNW,288,1.0,2.0,98,0.09,,---,0.44,127.00,VWS V14.00,2013-06-12 16:28:00,
2013-06-12 11:30:00,62.0,61.4,29.81,North,5,2.0,9.0,98,0.12,,---,0.34,5.00,VWS V14.00,2013-06-12 16:30:00,
2013-06-12 11:33:00,63.7,63.1,29.78,North,355,1.0,4.0,98,0.09,,---,0.44,199.00,VWS V14.00,2013-06-12 16:33:00,
2013-06-12 11:38:00,64.0,63.4,29.77,North,5,2.0,5.0,98,0.08,,---,0.45,193.00,VWS V14.00,2013-06-12 16:38:00,
2013-06-12 11:43:00,64.2,63.6,29.77,WNW,297,2.0,6.0,98,0.09,,---,0.46,167.00,VWS V14.00,2013-06-12 16:43:00,
2013-06-12 11:48:00,64.2,63.6,29.78,NW,314,1.0,6.0,98,0.09,,---,0.46,163.00,VWS V14.00,2013-06-12 16:48:00,
2013-06-12 11:53:00,64.2,63.6,29.77,NNW,344,0.0,6.0,98,0.07,,---,0.47,125.00,VWS V14.00,2013-06-12 16:53:00,
2013-06-12 11:58:00,64.3,63.7,29.77,North,5,1.0,3.0,98,0.09,,---,0.48,109.00,VWS V14.00,2013-06-12 16:58:00,
2013-06-12 12:00:00,62.6,62.0,29.75,NNW,340,2.0,11.0,98,0.09,,---,0.39,11.00,VWS V14.00,2013-06-12 17:00:00,
2013-06-12 12:03:00,64.2,63.6,29.77,NNE,12,1.0,4.0,98,0.09,,---,0.48,165.00,VWS V14.00,2013-06-12 17:03:00,
2013-06-12 12:08:00,64.4,63.8,29.76,North,355,1.0,7.0,98,0.07,,---,0.49,207.00,VWS V14.00,2013-06-12 17:08:00,
2013-06-12 12:13:00,64.5,63.9,29.77,North,9,0.0,7.0,98,0.08,,---,0.50,216.00,VWS V14.00,2013-06-12 17:13:00,
2013-06-12 12:19:00,64.6,64.0,29.77,North,9,2.0,7.0,98,0.08,,---,0.50,190.00,VWS V14.00,2013-06-12 17:19:00,
2013-06-12 12:24:00,64.7,64.1,29.77,North,355,3.0,7.0,98,0.07,,---,0.51,181.00,VWS V14.00,2013-06-12 17:24:00,
2013-06-12 12:29:00,64.7,64.1,29.77,NNE,28,0.0,6.0,98,0.07,,---,0.51,172.00,VWS V14.00,2013-06-12 17:29:00,
2013-06-12 12:30:00,63.5,62.9,29.77,WNW,288,0.0,12.0,98,0.09,,---,0.43,127.00,VWS V14.00,2013-06-12 17:30:00,
2013-06-12 12:34:00,64.8,63.9,29.76,NE,36,1.0,6.0,97,0.07,,---,0.52,183.00,VWS V14.00,2013-06-12 17:34:00,
2013-06-12 12:39:00,64.9,64.0,29.76,North,360,4.0,7.0,97,0.07,,---,0.52,237.00,VWS V14.00,2013-06-12 17:39:00,
2013-06-12 12:44:00,64.8,63.9,29.76,NNE,15,2.0,7.0,97,0.06,,---,0.53,255.00,VWS V14.00,2013-06-12 17:44:00,
2013-06-12 12:49:00,64.9,63.7,29.77,North,355,0.0,7.0,96,0.06,,---,0.54,162.00,VWS V14.00,2013-06-12 17:49:00,
2013-06-12 12:54:00,64.9,63.7,29.77,North,360,0.0,7.0,96,0.07,,---,0.54,156.00,VWS V14.00,2013-06-12 17:54:00,
2013-06-12 12:59:00,65.0,63.8,29.78,North,360,0.0,2.0,96,0.06,,---,0.54,137.00,VWS V14.00,2013-06-12 17:59:00,
2013-06-12 13:00:00,64.3,63.7,29.77,North,350,1.0,6.0,98,0.09,,---,0.48,102.00,VWS V14.00,2013-06-12 18:00:00,
2013-06-12 13:04:00,65.1,63.9,29.79,North,360,0.0,2.0,96,0.06,,---,0.55,81.00,VWS V14.00,2013-06-12 18:04:00,
2013-06-12 13:09:00,65.2,64.0,29.78,North,5,2.0,3.0,96,0.07,,---,0.56,90.00,VWS V14.00,2013-06-12 18:09:00,
2013-06-12 13:14:00,65.2,64.0,29.79,North,5,0.0,3.0,96,0.07,,---,0.56,88.00,VWS V14.00,2013-06-12 18:14:00,
2013-06-12 13:19:00,65.2,64.0,29.79,North,5,0.0,3.0,96,0.05,,---,0.56,67.00,VWS V14.00,2013-06-12 18:19:00,
2013-06-12 13:24:00,65.0,63.8,29.77,NNE,26,1.0,4.0,96,0.05,,---,0.57,60.00,VWS V14.00,2013-06-12 18:24:00,
2013-06-12 13:30:00,64.7,63.2,29.74,NNE,25,6.0,6.0,95,0.05,,---,0.57,46.00,VWS V14.00,2013-06-12 18:30:00,
2013-06-12 13:35:00,64.5,63.0,29.73,SW,219,0.0,6.0,95,0.05,,---,0.58,47.00,VWS V14.00,2013-06-12 18:35:00,
2013-06-12 13:40:00,64.4,63.2,29.74,SSE,165,0.0,6.0,96,0.05,,---,0.58,79.00,VWS V14.00,2013-06-12 18:40:00,
2013-06-12 13:45:00,64.4,63.2,29.75,SSW,202,0.0,6.0,96,0.06,,---,0.59,141.00,VWS V14.00,2013-06-12 18:45:00,
2013-06-12 13:50:00,64.7,63.8,29.76,SSW,203,1.0,6.0,97,0.06,,---,0.59,221.00,VWS V14.00,2013-06-12 18:50:00,
2013-06-12 13:55:00,65.0,64.1,29.77,NW,309,2.0,6.0,97,0.05,,---,0.60,220.00,VWS V14.00,2013-06-12 18:55:00,
2013-06-12 14:00:00,65.3,64.4,29.77,NNW,330,3.0,5.0,97,0.05,,---,0.60,399.00,VWS V14.00,2013-06-12 19:00:00,
2013-06-12 14:05:00,65.5,64.3,29.77,NW,323,4.0,6.0,96,0.05,,---,0.60,369.00,VWS V14.00,2013-06-12 19:05:00,
2013-06-12 14:10:00,65.7,64.5,29.77,NNW,340,3.0,6.0,96,0.04,,---,0.61,399.00,VWS V14.00,2013-06-12 19:10:00,
2013-06-12 14:15:00,66.0,64.8,29.77,NW,321,3.0,7.0,96,0.04,,---,0.61,406.00,VWS V14.00,2013-06-12 19:15:00,
2013-06-12 14:21:00,66.1,64.6,29.78,NE,36,4.0,10.0,95,0.05,,---,0.62,469.00,VWS V14.00,2013-06-12 19:21:00,
2013-06-12 14:26:00,66.5,65.0,29.77,NNW,338,5.0,10.0,95,0.05,,---,0.62,452.00,VWS V14.00,2013-06-12 19:26:00,
2013-06-12 14:30:00,64.9,63.4,29.76,NNE,30,0.0,4.0,95,0.05,,---,0.57,51.00,VWS V14.00,2013-06-12 19:30:00,
2013-06-12 14:31:00,66.6,64.8,29.77,NNE,26,4.0,11.0,94,0.05,,---,0.62,362.00,VWS V14.00,2013-06-12 19:31:00,
2013-06-12 14:36:00,66.6,64.5,29.77,NW,313,0.0,11.0,93,0.04,,---,0.62,316.00,VWS V14.00,2013-06-12 19:36:00,
2013-06-12 14:41:00,66.6,64.2,29.77,North,360,6.0,11.0,92,0.04,,---,0.63,253.00,VWS V14.00,2013-06-12 19:41:00,
2013-06-12 14:46:00,66.7,64.3,29.77,NNE,27,10.0,11.0,92,0.04,,---,0.63,220.00,VWS V14.00,2013-06-12 19:46:00,
2013-06-12 14:51:00,66.5,63.8,29.77,NW,325,2.0,11.0,91,0.05,,---,0.64,183.00,VWS V14.00,2013-06-12 19:51:00,
2013-06-12 14:56:00,66.5,64.1,29.77,NNW,331,4.0,11.0,92,0.05,,---,0.64,213.00,VWS V14.00,2013-06-12 19:56:00,
2013-06-12 15:00:00,65.1,64.2,29.77,NW,315,4.0,6.0,97,0.05,,---,0.60,309.00,VWS V14.00,2013-06-12 20:00:00,
2013-06-12 15:01:00,66.6,64.2,29.77,NE,37,0.0,5.0,92,0.05,,---,0.64,244.00,VWS V14.00,2013-06-12 20:01:00,
2013-06-12 15:06:00,66.8,64.4,29.77,North,9,0.0,5.0,92,0.04,,---,0.65,197.00,VWS V14.00,2013-06-12 20:06:00,
2013-06-12 15:11:00,67.0,64.3,29.77,NNE,28,0.0,7.0,91,0.04,,---,0.65,186.00,VWS V14.00,2013-06-12 20:11:00,
2013-06-12 15:16:00,67.3,64.9,29.77,NNE,18,0.0,7.0,92,0.04,,---,0.65,162.00,VWS V14.00,2013-06-12 20:16:00,
2013-06-12 15:21:00,67.5,64.8,29.77,NNE,21,2.0,7.0,91,0.04,,---,0.66,179.00,VWS V14.00,2013-06-12 20:21:00,
2013-06-12 15:27:00,67.8,65.1,29.76,NW,324,2.0,7.0,91,0.04,,---,0.66,230.00,VWS V14.00,2013-06-12 20:27:00,
2013-06-12 15:30:00,66.6,64.8,29.77,North,350,11.0,12.0,94,0.05,,---,0.62,394.00,VWS V14.00,2013-06-12 20:30:00,
2013-06-12 15:32:00,68.2,65.2,29.76,NE,45,2.0,6.0,90,0.04,,---,0.66,341.00,VWS V14.00,2013-06-12 20:32:00,
2013-06-12 15:37:00,68.8,65.8,29.76,NNE,13,3.0,6.0,90,0.00,,---,0.67,373.00,VWS V14.00,2013-06-12 20:37:00,
2013-06-12 15:42:00,69.5,65.1,29.75,NNW,335,5.0,10.0,86,0.00,,---,0.67,1020.00,VWS V14.00,2013-06-12 20:42:00,
2013-06-12 15:47:00,70.1,64.7,29.75,NE,39,6.0,10.0,83,0.00,,---,0.67,334.00,VWS V14.00,2013-06-12 20:47:00,
2013-06-12 15:52:00,70.2,64.4,29.76,North,5,4.0,10.0,82,0.04,,---,0.68,241.00,VWS V14.00,2013-06-12 20:52:00,
2013-06-12 15:57:00,70.2,63.8,29.76,NNW,346,3.0,12.0,80,0.04,,---,0.68,367.00,VWS V14.00,2013-06-12 20:57:00,
2013-06-12 16:00:00,70.2,63.8,29.76,NNW,346,3.0,12.0,80,0.04,,---,0.68,367.00,VWS V14.00,2013-06-12 21:00:00,
2013-06-12 16:02:00,70.2,64.1,29.76,North,355,7.0,10.0,81,0.04,,---,0.68,288.00,VWS V14.00,2013-06-12 21:02:00,
2013-06-12 16:07:00,70.3,63.8,29.76,NW,308,3.0,10.0,80,0.04,,---,0.68,339.00,VWS V14.00,2013-06-12 21:07:00,
2013-06-12 16:12:00,70.7,64.2,29.76,ENE,61,1.0,10.0,80,0.00,,---,0.69,290.00,VWS V14.00,2013-06-12 21:12:00,
2013-06-12 16:17:00,71.0,63.1,29.76,NNE,16,11.0,11.0,76,0.00,,---,0.69,464.00,VWS V14.00,2013-06-12 21:17:00,
2013-06-12 16:23:00,71.0,62.3,29.76,NNE,13,1.0,13.0,74,0.00,,---,0.69,207.00,VWS V14.00,2013-06-12 21:23:00,
2013-06-12 16:28:00,70.8,62.5,29.75,NE,36,0.0,4.0,75,0.00,,---,0.69,178.00,VWS V14.00,2013-06-12 21:28:00,
2013-06-12 16:30:00,67.9,65.2,29.76,NNE,28,3.0,7.0,91,0.04,,---,0.66,288.00,VWS V14.00,2013-06-12 21:30:00,
2013-06-12 16:33:00,70.5,61.4,29.75,NW,307,7.0,8.0,73,0.00,,---,0.70,237.00,VWS V14.00,2013-06-12 21:33:00,
2013-06-12 16:38:00,70.4,61.7,29.76,NNW,329,1.0,10.0,74,0.00,,---,0.70,272.00,VWS V14.00,2013-06-12 21:38:00,
2013-06-12 16:43:00,70.4,61.7,29.76,North,5,1.0,10.0,74,0.00,,---,0.70,265.00,VWS V14.00,2013-06-12 21:43:00,
2013-06-12 16:48:00,70.4,62.5,29.76,NE,53,0.0,10.0,76,0.00,,---,0.70,160.00,VWS V14.00,2013-06-12 21:48:00,
2013-06-12 16:53:00,70.3,62.4,29.76,NNE,16,1.0,10.0,76,0.00,,---,0.71,153.00,VWS V14.00,2013-06-12 21:53:00,
2013-06-12 16:58:00,70.2,63.0,29.76,North,360,0.0,1.0,78,0.00,,---,0.71,142.00,VWS V14.00,2013-06-12 21:58:00,
2013-06-12 17:00:00,70.2,63.8,29.76,NNW,346,3.0,12.0,80,0.04,,---,0.68,367.00,VWS V14.00,2013-06-12 22:00:00,
2013-06-12 17:03:00,70.0,63.2,29.76,NE,49,1.0,4.0,79,0.00,,---,0.71,123.00,VWS V14.00,2013-06-12 22:03:00,
2013-06-12 17:08:00,69.9,63.5,29.76,NNE,13,0.0,4.0,80,0.00,,---,0.71,118.00,VWS V14.00,2013-06-12 22:08:00,
2013-06-12 17:13:00,69.9,63.1,29.76,NNW,342,3.0,6.0,79,0.00,,---,0.72,116.00,VWS V14.00,2013-06-12 22:13:00,
2013-06-12 17:18:00,69.9,62.7,29.76,North,9,3.0,7.0,78,0.00,,---,0.72,118.00,VWS V14.00,2013-06-12 22:18:00,
2013-06-12 17:23:00,70.0,62.1,29.76,NNW,346,2.0,7.0,76,0.00,,---,0.72,130.00,VWS V14.00,2013-06-12 22:23:00,
2013-06-12 17:28:00,70.1,62.2,29.76,NNW,344,1.0,4.0,76,0.00,,---,0.72,127.00,VWS V14.00,2013-06-12 22:28:00,
2013-06-12 17:30:00,70.8,62.5,29.76,NNW,347,4.0,13.0,75,0.00,,---,0.69,178.00,VWS V14.00,2013-06-12 22:30:00,
2013-06-12 17:34:00,70.1,62.9,29.77,North,355,2.0,4.0,78,0.00,,---,0.72,151.00,VWS V14.00,2013-06-12 22:34:00,
2013-06-12 17:39:00,70.1,62.6,29.76,NNW,329,5.0,9.0,77,0.00,,---,0.72,199.00,VWS V14.00,2013-06-12 22:39:00,
2013-06-12 17:44:00,70.3,62.8,29.76,NNW,336,6.0,9.0,77,0.00,,---,0.73,209.00,VWS V14.00,2013-06-12 22:44:00,
2013-06-12 17:49:00,70.5,63.3,29.76,North,10,3.0,11.0,78,0.00,,---,0.73,162.00,VWS V14.00,2013-06-12 22:49:00,
2013-06-12 17:54:00,70.6,63.8,29.76,NNW,332,3.0,11.0,79,0.00,,---,0.73,148.00,VWS V14.00,2013-06-12 22:54:00,
2013-06-12 17:59:00,70.6,63.0,29.77,North,350,5.0,10.0,77,0.00,,---,0.73,134.00,VWS V14.00,2013-06-12 22:59:00,
2013-06-12 18:00:00,70.2,63.0,29.76,North,360,1.0,10.0,78,0.00,,---,0.71,144.00,VWS V14.00,2013-06-12 23:00:00,
2013-06-12 18:04:00,70.6,63.0,29.77,NNW,348,3.0,10.0,77,0.00,,---,0.73,142.00,VWS V14.00,2013-06-12 23:04:00,
2013-06-12 18:09:00,70.5,63.0,29.77,NNW,342,1.0,10.0,77,0.00,,---,0.73,128.00,VWS V14.00,2013-06-12 23:09:00,
2013-06-12 18:14:00,70.5,63.3,29.77,NNW,337,3.0,10.0,78,0.00,,---,0.74,142.00,VWS V14.00,2013-06-12 23:14:00,
2013-06-12 18:19:00,70.5,63.3,29.78,NNW,348,2.0,10.0,78,0.00,,---,0.74,139.00,VWS V14.00,2013-06-12 23:19:00,
2013-06-12 18:24:00,70.5,63.7,29.77,NW,324,3.0,10.0,79,0.00,,---,0.74,139.00,VWS V14.00,2013-06-12 23:24:00,
2013-06-12 18:29:00,70.6,62.7,29.77,NNE,13,1.0,12.0,76,0.00,,---,0.74,113.00,VWS V14.00,2013-06-12 23:29:00,
2013-06-12 18:30:00,70.1,62.2,29.76,NNE,22,1.0,7.0,76,0.00,,---,0.72,127.00,VWS V14.00,2013-06-12 23:30:00,
2013-06-12 18:34:00,70.8,62.9,29.77,NW,315,5.0,12.0,76,0.00,,---,0.74,113.00,VWS V14.00,2013-06-12 23:34:00,
2013-06-12 18:39:00,71.0,61.5,29.78,North,5,6.0,13.0,72,0.00,,---,0.74,128.00,VWS V14.00,2013-06-12 23:39:00,
2013-06-12 18:45:00,71.1,62.0,29.78,North,349,3.0,13.0,73,0.00,,---,0.75,109.00,VWS V14.00,2013-06-12 23:45:00,
2013-06-12 18:50:00,71.1,62.8,29.78,North,360,5.0,13.0,75,0.00,,---,0.75,111.00,VWS V14.00,2013-06-12 23:50:00,
2013-06-12 18:55:00,70.9,63.0,29.78,NW,325,5.0,13.0,76,0.00,,---,0.75,93.00,VWS V14.00,2013-06-12 23:55:00,
2013-06-12 19:00:00,70.8,62.5,29.78,NW,317,1.0,4.0,75,0.00,,---,0.75,107.00,VWS V14.00,2013-06-13 00:00:00,
2013-06-12 19:05:00,70.7,62.8,29.79,NW,313,2.0,5.0,76,0.00,,---,0.75,88.00,VWS V14.00,2013-06-13 00:05:00,
2013-06-12 19:10:00,70.6,63.4,29.79,NW,323,1.0,6.0,78,0.00,,---,0.75,81.00,VWS V14.00,2013-06-13 00:10:00,
2013-06-12 19:15:00,70.4,63.6,29.80,NNW,348,0.0,6.0,79,0.00,,---,0.76,81.00,VWS V14.00,2013-06-13 00:15:00,
2013-06-12 19:20:00,70.2,63.4,29.80,NNW,344,0.0,6.0,79,0.00,,---,0.76,67.00,VWS V14.00,2013-06-13 00:20:00,
2013-06-12 19:25:00,70.1,62.2,29.80,NNW,330,3.0,8.0,76,0.00,,---,0.76,62.00,VWS V14.00,2013-06-13 00:25:00,
2013-06-12 19:30:00,70.1,62.2,29.80,NNW,339,1.0,5.0,76,0.00,,---,0.76,42.00,VWS V14.00,2013-06-13 00:30:00,
2013-06-12 19:35:00,70.1,62.2,29.80,NW,325,0.0,7.0,76,0.00,,---,0.76,30.00,VWS V14.00,2013-06-13 00:35:00,
2013-06-12 19:40:00,70.1,61.0,29.81,NNW,331,3.0,11.0,73,0.00,,---,0.76,23.00,VWS V14.00,2013-06-13 00:40:00,
2013-06-12 19:45:00,70.0,61.0,29.81,NNW,345,1.0,11.0,73,0.00,,---,0.76,16.00,VWS V14.00,2013-06-13 00:45:00,
2013-06-12 19:51:00,69.9,61.2,29.81,NNW,332,2.0,11.0,74,0.00,,---,0.77,12.00,VWS V14.00,2013-06-13 00:51:00,
2013-06-12 19:56:00,69.6,61.0,29.81,NNW,334,0.0,11.0,74,0.00,,---,0.77,11.00,VWS V14.00,2013-06-13 00:56:00,
2013-06-12 20:00:00,70.8,62.9,29.78,NW,311,2.0,13.0,76,0.00,,---,0.75,97.00,VWS V14.00,2013-06-13 01:00:00,
2013-06-12 20:01:00,69.3,60.7,29.82,North,355,4.0,6.0,74,0.00,,---,0.77,11.00,VWS V14.00,2013-06-13 01:01:00,
2013-06-12 20:06:00,69.2,60.6,29.82,NW,309,2.0,10.0,74,0.00,,---,0.77,14.00,VWS V14.00,2013-06-13 01:06:00,
2013-06-12 20:11:00,68.9,60.7,29.82,NW,318,3.0,10.0,75,0.00,,---,0.77,21.00,VWS V14.00,2013-06-13 01:11:00,
2013-06-12 20:16:00,68.5,61.0,29.82,NNW,337,5.0,10.0,77,0.00,,---,0.77,25.00,VWS V14.00,2013-06-13 01:16:00,
2013-06-12 20:21:00,68.0,60.9,29.82,NW,323,4.0,10.0,78,0.00,,---,0.77,30.00,VWS V14.00,2013-06-13 01:21:00,
2013-06-12 20:26:00,67.7,61.0,29.81,NW,325,3.0,10.0,79,0.00,,---,0.78,30.00,VWS V14.00,2013-06-13 01:26:00,
2013-06-12 20:30:00,70.1,62.6,29.80,NW,321,1.0,8.0,77,0.00,,---,0.76,54.00,VWS V14.00,2013-06-13 01:30:00,
2013-06-12 20:31:00,67.5,60.8,29.82,NNW,330,2.0,7.0,79,0.00,,---,0.78,37.00,VWS V14.00,2013-06-13 01:31:00,
2013-06-12 20:36:00,67.3,60.9,29.81,NNW,327,2.0,7.0,80,0.00,,---,0.78,26.00,VWS V14.00,2013-06-13 01:36:00,
2013-06-12 20:42:00,67.1,61.1,29.81,NNW,336,1.0,7.0,81,0.00,,---,0.78,19.00,VWS V14.00,2013-06-13 01:42:00,
2013-06-12 20:47:00,67.0,60.6,29.82,NNW,334,2.0,7.0,80,0.00,,---,0.78,14.00,VWS V14.00,2013-06-13 01:47:00,
2013-06-12 20:52:00,67.1,60.7,29.82,NNW,334,2.0,7.0,80,0.00,,---,0.78,7.00,VWS V14.00,2013-06-13 01:52:00,
2013-06-12 20:57:00,67.1,60.7,29.82,NNW,327,3.0,7.0,80,0.00,,---,0.78,5.00,VWS V14.00,2013-06-13 01:57:00,
2013-06-12 21:00:00,69.5,60.9,29.81,NNW,334,1.0,11.0,74,0.00,,---,0.77,11.00,VWS V14.00,2013-06-13 02:00:00,
2013-06-12 21:02:00,67.1,60.7,29.82,North,355,2.0,6.0,80,0.00,,---,0.78,0.00,VWS V14.00,2013-06-13 02:02:00,
2013-06-12 21:07:00,67.0,60.6,29.82,NNW,334,4.0,6.0,80,0.00,,---,0.79,0.00,VWS V14.00,2013-06-13 02:07:00,
2013-06-12 21:12:00,67.0,60.6,29.83,NNW,328,4.0,7.0,80,0.00,,---,0.79,0.00,VWS V14.00,2013-06-13 02:12:00,
2013-06-12 21:17:00,67.0,60.6,29.83,NNW,335,4.0,7.0,80,0.00,,---,0.79,0.00,VWS V14.00,2013-06-13 02:17:00,
2013-06-12 21:22:00,67.0,60.6,29.83,NNW,345,2.0,11.0,80,0.00,,---,0.79,0.00,VWS V14.00,2013-06-13 02:22:00,
2013-06-12 21:27:00,66.9,60.9,29.83,NNW,339,2.0,2.0,81,0.00,,---,0.79,0.00,VWS V14.00,2013-06-13 02:27:00,
2013-06-12 21:30:00,67.6,60.9,29.81,NNW,329,0.0,10.0,79,0.00,,---,0.78,32.00,VWS V14.00,2013-06-13 02:30:00,
2013-06-12 21:33:00,66.9,60.5,29.83,NW,315,3.0,7.0,80,0.00,,---,0.79,0.00,VWS V14.00,2013-06-13 02:33:00,
2013-06-12 21:38:00,67.1,60.7,29.83,NW,325,2.0,10.0,80,0.00,,---,0.80,0.00,VWS V14.00,2013-06-13 02:38:00,
2013-06-12 21:43:00,67.2,60.1,29.83,NW,322,4.0,11.0,78,0.00,,---,0.80,0.00,VWS V14.00,2013-06-13 02:43:00,
2013-06-12 21:48:00,67.5,60.0,29.84,NNW,334,3.0,11.0,77,0.00,,---,0.80,0.00,VWS V14.00,2013-06-13 02:48:00,
2013-06-12 21:53:00,67.7,59.5,29.84,NW,317,2.0,11.0,75,0.00,,---,0.80,0.00,VWS V14.00,2013-06-13 02:53:00,
2013-06-12 21:58:00,67.9,59.3,29.84,NW,304,4.0,7.0,74,0.00,,---,0.80,0.00,VWS V14.00,2013-06-13 02:58:00,
2013-06-12 22:00:00,67.1,60.7,29.82,NNW,327,2.0,7.0,80,0.00,,---,0.78,5.00,VWS V14.00,2013-06-13 03:00:00,
2013-06-12 22:03:00,68.1,59.1,29.85,NW,323,3.0,13.0,73,0.00,,---,0.80,0.00,VWS V14.00,2013-06-13 03:03:00,
2013-06-12 22:08:00,68.1,58.7,29.85,NNW,339,3.0,13.0,72,0.00,,---,0.80,0.00,VWS V14.00,2013-06-13 03:08:00,
2013-06-12 22:13:00,68.0,58.7,29.85,NNW,347,6.0,13.0,72,0.00,,---,0.80,0.00,VWS V14.00,2013-06-13 03:13:00,
2013-06-12 22:18:00,67.9,58.5,29.86,NW,323,4.0,13.0,72,0.00,,---,0.81,0.00,VWS V14.00,2013-06-13 03:18:00,
2013-06-12 22:23:00,67.6,58.3,29.86,NNW,331,3.0,13.0,72,0.00,,---,0.81,0.00,VWS V14.00,2013-06-13 03:23:00,
2013-06-12 22:28:00,67.4,57.7,29.86,NNW,327,3.0,10.0,71,0.00,,---,0.81,0.00,VWS V14.00,2013-06-13 03:28:00,
2013-06-12 22:30:00,66.9,60.5,29.83,NNW,339,2.0,11.0,80,0.00,,---,0.79,0.00,VWS V14.00,2013-06-13 03:30:00,
2013-06-12 22:34:00,67.1,57.8,29.86,North,9,3.0,10.0,72,0.00,,---,0.81,0.00,VWS V14.00,2013-06-13 03:34:00,
2013-06-12 22:39:00,67.0,57.3,29.86,North,355,2.0,10.0,71,0.00,,---,0.81,0.00,VWS V14.00,2013-06-13 03:39:00,
2013-06-12 22:44:00,66.9,57.2,29.87,WNW,300,10.0,12.0,71,0.00,,---,0.81,0.00,VWS V14.00,2013-06-13 03:44:00,
2013-06-12 22:49:00,67.0,56.9,29.87,NNW,346,3.0,12.0,70,0.00,,---,0.81,0.00,VWS V14.00,2013-06-13 03:49:00,
2013-06-12 22:54:00,66.8,56.7,29.87,NNW,330,2.0,12.0,70,0.00,,---,0.81,0.00,VWS V14.00,2013-06-13 03:54:00,
2013-06-12 22:59:00,66.6,56.9,29.87,NW,319,4.0,5.0,71,0.00,,---,0.81,0.00,VWS V14.00,2013-06-13 03:59:00,
2013-06-12 23:00:00,67.9,59.3,29.84,NW,309,6.0,11.0,74,0.00,,---,0.80,0.00,VWS V14.00,2013-06-13 04:00:00,
2013-06-12 23:01:00,66.5,56.4,29.87,NW,304,7.0,10.0,70,0.00,,---,0.82,0.00,VWS V14.00,2013-06-13 04:01:00,
2013-06-12 23:06:00,66.4,56.7,29.87,NE,51,8.0,11.0,71,0.00,,---,0.82,0.00,VWS V14.00,2013-06-13 04:06:00,
2013-06-12 23:12:00,66.4,56.3,29.88,NNW,327,5.0,11.0,70,0.00,,---,0.82,0.00,VWS V14.00,2013-06-13 04:12:00,
2013-06-12 23:17:00,66.3,55.8,29.87,NNW,338,5.0,11.0,69,0.00,,---,0.82,0.00,VWS V14.00,2013-06-13 04:17:00,
2013-06-12 23:22:00,66.1,55.7,29.88,NNW,338,4.0,13.0,69,0.00,,---,0.82,0.00,VWS V14.00,2013-06-13 04:22:00,
2013-06-12 23:27:00,65.9,55.8,29.88,NW,315,4.0,13.0,70,0.00,,---,0.82,0.00,VWS V14.00,2013-06-13 04:27:00,
2013-06-12 23:30:00,67.4,58.1,29.86,NW,319,3.0,13.0,72,0.00,,---,0.81,0.00,VWS V14.00,2013-06-13 04:30:00,
2013-06-12 23:32:00,65.8,55.4,29.89,NNW,333,1.0,13.0,69,0.00,,---,0.82,0.00,VWS V14.00,2013-06-13 04:32:00,
2013-06-12 23:37:00,65.8,55.4,29.89,NNW,329,4.0,13.0,69,0.00,,---,0.82,0.00,VWS V14.00,2013-06-13 04:37:00,
2013-06-12 23:42:00,65.8,55.4,29.90,NW,308,6.0,13.0,69,0.00,,---,0.82,0.00,VWS V14.00,2013-06-13 04:42:00,
2013-06-12 23:47:00,65.7,55.3,29.90,NW,323,4.0,13.0,69,0.00,,---,0.82,0.00,VWS V14.00,2013-06-13 04:47:00,
2013-06-12 23:52:00,65.7,54.9,29.91,NW,323,4.0,15.0,68,0.00,,---,0.83,0.00,VWS V14.00,2013-06-13 04:52:00,
2013-06-12 23:57:00,65.4,54.6,29.90,NNW,333,4.0,7.0,68,0.00,,---,0.00,0.00,VWS V14.00,2013-06-13 04:57:00,